Time;durP1;ratioP1;P1;durP2;ratioP2;P2;SDS_P1;SDS_P2;PMS_P1;PMS_P2;Temp;Humidity;BMP_temperature;BMP_pressure;BME280_temperature;BME280_humidity;BME280_pressure;Samples;Min_cycle;Max_cycle;Signal;HPM_P1;HPM_P2
2023/06/12 00:01:56;;;;;;;5.35;3.90;;;;;;;;;;13176404;22;20844;-86
2023/06/12 00:06:59;;;;;;;4.93;3.72;;;;;;;;;;13174644;22;20894;-86
2023/06/12 00:12:01;;;;;;;3.97;3.37;;;;;;;;;;13175681;22;20358;-85
2023/06/12 00:17:06;;;;;;;4.72;3.67;;;;;;;;;;13197483;22;20369;-86
2023/06/12 00:22:08;;;;;;;3.90;3.50;;;;;;;;;;13175828;22;20365;-86
2023/06/12 00:27:11;;;;;;;4.70;3.70;;;;;;;;;;13175795;22;20362;-86
2023/06/12 00:32:14;;;;;;;4.20;3.22;;;;;;;;;;13175203;22;20365;-86
2023/06/12 00:37:17;;;;;;;5.53;3.43;;;;;;;;;;13175771;22;20378;-86
2023/06/12 00:42:21;;;;;;;4.07;3.20;;;;;;;;;;13174653;22;20817;-86
2023/06/12 00:47:25;;;;;;;5.38;3.50;;;;;;;;;;13175747;22;20895;-86
2023/06/12 00:52:34;;;;;;;6.00;3.60;;;;;;;;;;13196948;22;20416;-86
2023/06/12 00:57:38;;;;;;;4.38;3.10;;;;;;;;;;13174336;22;20370;-86
2023/06/12 01:02:44;;;;;;;5.90;3.60;;;;;;;;;;13175377;22;20454;-86
2023/06/12 01:07:52;;;;;;;5.63;3.92;;;;;;;;;;13175115;22;20353;-86
2023/06/12 01:12:55;;;;;;;5.88;3.58;;;;;;;;;;13174274;22;20354;-86
2023/06/12 01:17:59;;;;;;;4.90;3.33;;;;;;;;;;13175431;22;20377;-86
2023/06/12 01:23:08;;;;;;;3.63;3.03;;;;;;;;;;13174884;22;20407;-86
2023/06/12 01:28:32;;;;;;;3.90;3.00;;;;;;;;;;13174404;22;20366;-86
2023/06/12 01:33:40;;;;;;;4.07;3.40;;;;;;;;;;13175584;22;20353;-86
2023/06/12 01:38:46;;;;;;;3.72;2.90;;;;;;;;;;13174047;22;20374;-86
2023/06/12 01:43:48;;;;;;;5.05;3.33;;;;;;;;;;13196764;22;20358;-86
2023/06/12 01:48:52;;;;;;;3.60;3.23;;;;;;;;;;13197099;22;20361;-86
2023/06/12 01:53:55;;;;;;;4.72;3.80;;;;;;;;;;13174469;22;20361;-86
2023/06/12 01:58:57;;;;;;;4.50;3.33;;;;;;;;;;13174817;22;20377;-86
2023/06/12 02:04:01;;;;;;;4.78;3.40;;;;;;;;;;13173388;22;20475;-86
2023/06/12 02:09:03;;;;;;;7.05;3.38;;;;;;;;;;13173735;22;20410;-86
2023/06/12 02:14:06;;;;;;;4.53;3.30;;;;;;;;;;13172472;22;20434;-86
2023/06/12 02:19:09;;;;;;;3.40;3.10;;;;;;;;;;13173251;22;20404;-86
2023/06/12 02:24:11;;;;;;;6.00;4.15;;;;;;;;;;13172430;22;20361;-86
2023/06/12 02:29:14;;;;;;;5.97;4.17;;;;;;;;;;13173077;22;20994;-86
2023/06/12 02:34:18;;;;;;;5.53;3.50;;;;;;;;;;13195104;22;20357;-86
2023/06/12 02:39:21;;;;;;;5.13;3.57;;;;;;;;;;13171469;22;20385;-86
2023/06/12 02:44:23;;;;;;;4.97;3.50;;;;;;;;;;13172372;22;20817;-86
2023/06/12 02:49:28;;;;;;;4.63;3.77;;;;;;;;;;13172542;22;20362;-86
2023/06/12 02:54:32;;;;;;;6.47;3.67;;;;;;;;;;13173041;22;20361;-86
2023/06/12 02:59:34;;;;;;;4.25;3.72;;;;;;;;;;13172372;22;20377;-86
2023/06/12 03:04:38;;;;;;;4.20;3.20;;;;;;;;;;13172959;22;20365;-86
2023/06/12 03:09:40;;;;;;;4.65;3.92;;;;;;;;;;13172152;22;20357;-86
2023/06/12 03:14:43;;;;;;;3.97;3.30;;;;;;;;;;13172223;22;20423;-86
2023/06/12 03:19:47;;;;;;;5.38;3.45;;;;;;;;;;13194919;22;20415;-87
2023/06/12 03:24:53;;;;;;;5.25;3.50;;;;;;;;;;13175596;22;20730;-85
2023/06/12 03:29:55;;;;;;;4.38;3.80;;;;;;;;;;13199247;22;20735;-86
2023/06/12 03:34:59;;;;;;;4.73;4.23;;;;;;;;;;13176585;22;20418;-86
2023/06/12 03:40:01;;;;;;;4.40;3.92;;;;;;;;;;13176015;22;20373;-86
2023/06/12 03:45:04;;;;;;;4.05;3.65;;;;;;;;;;13177065;22;20712;-86
2023/06/12 03:50:10;;;;;;;4.60;3.80;;;;;;;;;;13177681;22;20870;-86
2023/06/12 03:55:13;;;;;;;4.13;3.73;;;;;;;;;;13173741;22;20803;-86
2023/06/12 04:00:16;;;;;;;4.25;3.83;;;;;;;;;;13176630;22;20706;-86
2023/06/12 04:05:20;;;;;;;4.40;3.50;;;;;;;;;;13175769;22;20720;-86
2023/06/12 04:10:23;;;;;;;5.00;3.30;;;;;;;;;;13176375;22;20349;-86
2023/06/12 04:15:26;;;;;;;5.07;3.85;;;;;;;;;;13174650;22;20899;-86
2023/06/12 04:20:32;;;;;;;7.05;3.78;;;;;;;;;;13177662;22;20438;-83
2023/06/12 04:25:35;;;;;;;5.00;3.93;;;;;;;;;;13196818;22;20477;-86
2023/06/12 04:30:37;;;;;;;5.50;4.07;;;;;;;;;;13174478;22;20391;-86
2023/06/12 04:35:45;;;;;;;4.45;3.10;;;;;;;;;;13174277;22;20357;-86
2023/06/12 04:40:48;;;;;;;5.37;3.70;;;;;;;;;;13197022;22;20365;-86
2023/06/12 04:45:51;;;;;;;3.20;2.90;;;;;;;;;;13175177;22;20423;-85
2023/06/12 04:50:55;;;;;;;4.00;3.53;;;;;;;;;;13174752;22;20357;-86
2023/06/12 04:55:58;;;;;;;6.20;3.72;;;;;;;;;;13174165;22;20761;-86
2023/06/12 05:01:00;;;;;;;5.05;3.58;;;;;;;;;;13174679;22;20744;-86
2023/06/12 05:06:04;;;;;;;5.88;3.75;;;;;;;;;;13173652;22;20418;-86
2023/06/12 05:11:06;;;;;;;6.10;3.75;;;;;;;;;;13174821;22;20357;-85
2023/06/12 05:16:09;;;;;;;4.07;3.33;;;;;;;;;;13170682;22;20354;-86
2023/06/12 05:21:13;;;;;;;5.18;3.40;;;;;;;;;;13171863;22;20751;-86
2023/06/12 05:26:15;;;;;;;5.87;3.50;;;;;;;;;;13172542;22;20377;-85
2023/06/12 05:31:18;;;;;;;4.68;3.20;;;;;;;;;;13172252;22;20426;-86
2023/06/12 05:36:22;;;;;;;5.27;3.67;;;;;;;;;;13170325;22;20366;-85
2023/06/12 05:41:25;;;;;;;4.70;4.20;;;;;;;;;;13169808;22;20403;-85
2023/06/12 05:46:27;;;;;;;6.90;4.50;;;;;;;;;;13191954;22;20987;-85
2023/06/12 05:51:31;;;;;;;5.75;5.00;;;;;;;;;;13171948;22;20434;-85
2023/06/12 05:56:33;;;;;;;10.32;5.47;;;;;;;;;;13171960;22;20383;-85
2023/06/12 06:01:35;;;;;;;9.33;5.90;;;;;;;;;;13173383;22;20430;-86
2023/06/12 06:06:40;;;;;;;9.00;5.72;;;;;;;;;;13166439;22;20387;-85
2023/06/12 06:11:42;;;;;;;6.43;5.40;;;;;;;;;;13173522;22;20353;-85
2023/06/12 06:16:44;;;;;;;7.20;6.35;;;;;;;;;;13174956;22;20395;-85
2023/06/12 06:21:48;;;;;;;9.63;6.13;;;;;;;;;;13173578;22;20702;-85
2023/06/12 06:26:50;;;;;;;8.30;6.53;;;;;;;;;;13173339;22;20362;-85
2023/06/12 06:31:52;;;;;;;9.23;5.97;;;;;;;;;;13172776;22;20361;-85
2023/06/12 06:36:56;;;;;;;8.27;5.80;;;;;;;;;;13196027;22;20829;-85
2023/06/12 06:41:59;;;;;;;8.13;6.40;;;;;;;;;;13172308;22;20377;-85
2023/06/12 06:47:02;;;;;;;7.95;5.85;;;;;;;;;;13172227;22;20418;-86
2023/06/12 06:52:06;;;;;;;6.73;5.90;;;;;;;;;;13172486;22;20426;-84
2023/06/12 06:57:12;;;;;;;6.40;5.00;;;;;;;;;;13170988;22;20422;-84
2023/06/12 07:02:14;;;;;;;6.20;5.20;;;;;;;;;;13176801;22;20434;-84
2023/06/12 07:07:18;;;;;;;4.97;4.47;;;;;;;;;;13173409;22;20358;-84
2023/06/12 07:12:20;;;;;;;5.87;4.93;;;;;;;;;;13172814;22;20388;-85
2023/06/12 07:17:23;;;;;;;5.45;4.38;;;;;;;;;;13173067;22;20357;-85
2023/06/12 07:22:27;;;;;;;4.18;3.75;;;;;;;;;;13194309;22;20411;-84
2023/06/12 07:27:29;;;;;;;4.35;3.30;;;;;;;;;;13173140;22;20354;-86
2023/06/12 07:32:32;;;;;;;3.83;2.93;;;;;;;;;;13171762;22;20353;-85
2023/06/12 07:37:36;;;;;;;5.13;3.45;;;;;;;;;;13170945;22;20402;-85
2023/06/12 07:42:38;;;;;;;4.50;3.40;;;;;;;;;;13171384;22;20373;-84
2023/06/12 07:47:40;;;;;;;3.42;3.13;;;;;;;;;;13171609;22;20358;-84
2023/06/12 07:52:44;;;;;;;3.92;3.20;;;;;;;;;;13170854;22;20357;-84
2023/06/12 07:57:47;;;;;;;6.18;3.42;;;;;;;;;;13168229;22;20354;-83
2023/06/12 08:02:58;;;;;;;3.00;2.67;;;;;;;;;;13168165;22;20423;-84
2023/06/12 08:08:02;;;;;;;4.93;2.60;;;;;;;;;;13170288;22;20361;-84
2023/06/12 08:13:04;;;;;;;2.75;2.50;;;;;;;;;;13196820;22;20398;-84
2023/06/12 08:18:06;;;;;;;3.60;2.60;;;;;;;;;;13173572;22;20383;-84
2023/06/12 08:23:10;;;;;;;3.53;2.40;;;;;;;;;;13197409;22;20422;-84
2023/06/12 08:28:13;;;;;;;3.20;2.53;;;;;;;;;;13174252;22;20391;-84
2023/06/12 08:33:15;;;;;;;3.88;2.42;;;;;;;;;;13173807;22;20453;-84
2023/06/12 08:38:19;;;;;;;16.48;3.45;;;;;;;;;;13195514;22;20414;-84
2023/06/12 08:43:21;;;;;;;3.50;2.50;;;;;;;;;;13173237;22;20361;-86
2023/06/12 08:48:26;;;;;;;3.33;2.38;;;;;;;;;;13172213;22;20358;-84
2023/06/12 08:53:33;;;;;;;3.93;2.70;;;;;;;;;;13174018;22;20366;-85
2023/06/12 08:58:35;;;;;;;3.33;2.72;;;;;;;;;;13175120;22;20772;-82
2023/06/12 09:03:38;;;;;;;3.30;3.00;;;;;;;;;;13175887;22;20434;-84
2023/06/12 09:08:42;;;;;;;4.47;3.17;;;;;;;;;;13173099;22;20438;-86
2023/06/12 09:13:45;;;;;;;5.00;3.20;;;;;;;;;;13172029;22;20366;-83
2023/06/12 09:18:49;;;;;;;4.68;3.50;;;;;;;;;;13173150;22;20381;-82
2023/06/12 09:23:55;;;;;;;4.53;3.53;;;;;;;;;;13173016;22;20362;-86
2023/06/12 09:28:57;;;;;;;3.67;3.13;;;;;;;;;;13194986;22;20350;-86
2023/06/12 09:34:00;;;;;;;3.70;3.40;;;;;;;;;;13172255;22;20361;-86
2023/06/12 09:39:06;;;;;;;4.80;3.37;;;;;;;;;;13190589;22;20366;-83
2023/06/12 09:44:08;;;;;;;3.50;3.17;;;;;;;;;;13173468;22;20418;-84
2023/06/12 09:49:12;;;;;;;4.25;3.47;;;;;;;;;;13173675;22;20357;-83
2023/06/12 09:54:17;;;;;;;4.63;3.58;;;;;;;;;;13172931;22;20439;-82
2023/06/12 09:59:21;;;;;;;4.95;3.60;;;;;;;;;;13173568;22;20451;-83
2023/06/12 10:04:28;;;;;;;3.70;2.90;;;;;;;;;;13173752;22;20358;-85
2023/06/12 10:09:32;;;;;;;4.03;3.28;;;;;;;;;;13172492;22;20459;-85
2023/06/12 10:14:37;;;;;;;4.18;3.40;;;;;;;;;;13172839;22;20898;-86
2023/06/12 10:19:40;;;;;;;3.42;3.10;;;;;;;;;;13173276;22;20381;-84
2023/06/12 10:24:45;;;;;;;3.33;2.97;;;;;;;;;;13171089;22;20361;-85
2023/06/12 10:29:56;;;;;;;3.38;2.80;;;;;;;;;;13171951;22;20357;-85
2023/06/12 10:34:58;;;;;;;6.30;3.00;;;;;;;;;;13172158;22;20365;-86
2023/06/12 10:40:15;;;;;;;3.28;2.95;;;;;;;;;;13172005;22;20382;-86
2023/06/12 10:45:19;;;;;;;3.73;3.40;;;;;;;;;;13172272;22;20358;-85
2023/06/12 10:50:23;;;;;;;3.57;3.10;;;;;;;;;;13192940;22;20361;-85
2023/06/12 10:55:32;;;;;;;3.38;3.08;;;;;;;;;;13170861;22;20358;-85
2023/06/12 11:00:36;;;;;;;3.40;3.10;;;;;;;;;;13171567;22;20504;-85
2023/06/12 11:05:45;;;;;;;3.63;3.22;;;;;;;;;;13170146;22;20419;-85
2023/06/12 11:10:49;;;;;;;4.20;3.13;;;;;;;;;;13170974;22;20422;-85
2023/06/12 11:15:52;;;;;;;4.60;3.17;;;;;;;;;;13171046;22;20509;-85
2023/06/12 11:20:56;;;;;;;4.80;3.20;;;;;;;;;;13170889;22;20381;-84
2023/06/12 11:26:00;;;;;;;3.70;2.80;;;;;;;;;;13170845;22;20395;-85
2023/06/12 11:31:03;;;;;;;3.07;2.40;;;;;;;;;;13170633;22;20353;-85
2023/06/12 11:36:05;;;;;;;4.30;2.90;;;;;;;;;;13162639;22;20397;-85
2023/06/12 11:41:12;;;;;;;2.88;2.58;;;;;;;;;;13162746;22;20407;-85
2023/06/12 11:46:14;;;;;;;2.80;2.60;;;;;;;;;;13166468;22;20929;-85
2023/06/12 11:51:17;;;;;;;3.28;2.80;;;;;;;;;;13163203;22;20362;-84
2023/06/12 11:56:21;;;;;;;2.90;2.42;;;;;;;;;;13163906;22;21000;-85
2023/06/12 12:01:25;;;;;;;5.35;3.00;;;;;;;;;;13165487;22;20434;-83
2023/06/12 12:06:28;;;;;;;2.78;2.58;;;;;;;;;;13169231;22;20361;-84
2023/06/12 12:11:32;;;;;;;2.50;2.30;;;;;;;;;;13194834;22;21063;-83
2023/06/12 12:16:38;;;;;;;2.60;2.40;;;;;;;;;;13196760;22;20353;-83
2023/06/12 12:21:43;;;;;;;2.70;2.50;;;;;;;;;;13174536;22;20378;-82
2023/06/12 12:26:50;;;;;;;3.07;2.77;;;;;;;;;;13174663;22;20362;-84
2023/06/12 12:31:53;;;;;;;2.87;2.67;;;;;;;;;;13170978;22;20349;-83
2023/06/12 12:36:56;;;;;;;3.67;2.60;;;;;;;;;;13173426;22;20350;-82
2023/06/12 12:41:59;;;;;;;3.20;2.30;;;;;;;;;;13196051;22;20858;-83
2023/06/12 12:47:02;;;;;;;3.40;2.58;;;;;;;;;;13172503;22;20357;-83
2023/06/12 12:52:05;;;;;;;3.55;2.88;;;;;;;;;;13171312;22;20358;-84
2023/06/12 12:57:09;;;;;;;3.00;2.70;;;;;;;;;;13195154;22;20391;-83
2023/06/12 13:02:12;;;;;;;3.20;2.90;;;;;;;;;;13173098;22;20377;-83
2023/06/12 13:07:14;;;;;;;2.92;2.70;;;;;;;;;;13172791;22;20358;-76
2023/06/12 13:12:18;;;;;;;3.20;2.90;;;;;;;;;;13173501;22;20357;-86
2023/06/12 13:17:20;;;;;;;5.15;2.95;;;;;;;;;;13175460;22;20886;-86
2023/06/12 13:22:22;;;;;;;4.20;2.97;;;;;;;;;;13174613;22;20754;-86
2023/06/12 13:27:26;;;;;;;7.25;3.97;;;;;;;;;;13174119;22;20361;-87
2023/06/12 13:32:28;;;;;;;4.10;3.47;;;;;;;;;;13195378;22;20365;-86
2023/06/12 13:37:31;;;;;;;4.85;3.55;;;;;;;;;;13173145;22;20374;-86
2023/06/12 13:42:34;;;;;;;4.20;3.20;;;;;;;;;;13172619;22;20378;-86
2023/06/12 13:47:37;;;;;;;3.42;3.13;;;;;;;;;;13173422;22;20426;-85
2023/06/12 13:52:39;;;;;;;3.50;3.00;;;;;;;;;;13174406;22;20362;-86
2023/06/12 13:57:44;;;;;;;3.60;3.08;;;;;;;;;;13172940;22;20414;-84
2023/06/12 14:02:46;;;;;;;3.33;3.03;;;;;;;;;;13195675;22;20373;-86
2023/06/12 14:07:49;;;;;;;4.00;3.27;;;;;;;;;;13174014;22;20365;-86
2023/06/12 14:12:53;;;;;;;3.40;3.10;;;;;;;;;;13172547;22;20419;-87
2023/06/12 14:17:56;;;;;;;5.07;3.50;;;;;;;;;;13173237;22;20353;-87
2023/06/12 14:22:59;;;;;;;3.70;3.40;;;;;;;;;;13172493;22;20446;-84
2023/06/12 14:28:03;;;;;;;3.70;3.30;;;;;;;;;;13193882;22;20422;-85
2023/06/12 14:33:05;;;;;;;5.87;3.90;;;;;;;;;;13164671;22;20820;-86
2023/06/12 14:38:07;;;;;;;4.60;3.43;;;;;;;;;;13168804;22;20901;-83
2023/06/12 14:43:11;;;;;;;4.53;4.13;;;;;;;;;;13164096;22;20486;-84
2023/06/12 14:48:14;;;;;;;5.97;4.63;;;;;;;;;;13151677;22;20884;-84
2023/06/12 14:53:16;;;;;;;5.30;4.63;;;;;;;;;;13154826;22;20446;-83
2023/06/12 14:58:20;;;;;;;5.25;4.40;;;;;;;;;;13157975;22;20485;-83
2023/06/12 15:03:23;;;;;;;4.90;4.40;;;;;;;;;;13153367;22;20976;-82
2023/06/12 15:08:25;;;;;;;4.65;4.13;;;;;;;;;;13157888;22;20442;-82
2023/06/12 15:13:29;;;;;;;6.18;4.38;;;;;;;;;;13158189;22;20377;-82
2023/06/12 15:18:31;;;;;;;5.30;4.03;;;;;;;;;;13157798;22;20887;-83
2023/06/12 15:23:34;;;;;;;6.18;4.22;;;;;;;;;;13158585;22;20378;-83
2023/06/12 15:28:37;;;;;;;5.13;3.92;;;;;;;;;;13159118;22;20369;-84
2023/06/12 15:33:40;;;;;;;4.37;3.97;;;;;;;;;;13157077;22;20373;-83
2023/06/12 15:38:44;;;;;;;6.77;4.30;;;;;;;;;;13159473;22;20365;-84
2023/06/12 15:43:47;;;;;;;4.93;3.85;;;;;;;;;;13157591;22;20422;-84
2023/06/12 15:48:50;;;;;;;4.72;3.63;;;;;;;;;;13160189;22;20430;-84
2023/06/12 15:53:52;;;;;;;4.55;3.78;;;;;;;;;;13157814;22;20430;-84
2023/06/12 15:58:56;;;;;;;5.38;4.30;;;;;;;;;;13159009;22;20377;-83
2023/06/12 16:03:59;;;;;;;3.80;3.40;;;;;;;;;;13155505;22;20374;-85
2023/06/12 16:09:01;;;;;;;5.10;3.50;;;;;;;;;;13154589;22;20583;-85
2023/06/12 16:14:05;;;;;;;3.88;3.47;;;;;;;;;;13155333;22;20377;-83
2023/06/12 16:19:07;;;;;;;4.15;3.53;;;;;;;;;;13170794;22;20437;-84
2023/06/12 16:24:10;;;;;;;4.30;3.70;;;;;;;;;;13152614;22;20758;-84
2023/06/12 16:29:13;;;;;;;3.90;3.60;;;;;;;;;;13155565;22;20369;-84
2023/06/12 16:34:16;;;;;;;3.90;3.40;;;;;;;;;;13158895;22;20366;-83
2023/06/12 16:39:18;;;;;;;4.85;3.67;;;;;;;;;;13158232;22;20442;-85
2023/06/12 16:44:22;;;;;;;4.40;3.33;;;;;;;;;;13159883;22;20438;-85
2023/06/12 16:49:24;;;;;;;4.00;3.60;;;;;;;;;;13160177;22;20373;-84
2023/06/12 16:54:26;;;;;;;3.30;3.00;;;;;;;;;;13159629;22;20435;-85
2023/06/12 16:59:30;;;;;;;3.22;3.03;;;;;;;;;;13162068;22;20369;-85
2023/06/12 17:04:33;;;;;;;4.32;2.92;;;;;;;;;;13163927;22;20779;-79
2023/06/12 17:09:35;;;;;;;3.05;2.80;;;;;;;;;;13174361;22;20698;-84
2023/06/12 17:14:40;;;;;;;6.80;3.20;;;;;;;;;;13162900;22;20373;-85
2023/06/12 17:19:42;;;;;;;3.60;3.03;;;;;;;;;;13164026;22;20370;-84
2023/06/12 17:24:44;;;;;;;4.03;3.00;;;;;;;;;;13165135;22;20434;-84
2023/06/12 17:29:50;;;;;;;3.17;2.88;;;;;;;;;;13182249;22;20734;-84
2023/06/12 17:34:52;;;;;;;3.05;2.60;;;;;;;;;;13164307;22;20365;-85
2023/06/12 17:39:55;;;;;;;3.00;2.80;;;;;;;;;;13168861;22;20698;-82
2023/06/12 17:44:58;;;;;;;4.07;2.85;;;;;;;;;;13168886;22;20857;-82
2023/06/12 17:50:01;;;;;;;4.13;2.77;;;;;;;;;;13169523;22;20358;-82
2023/06/12 17:55:04;;;;;;;4.17;2.90;;;;;;;;;;13187001;22;20751;-81
2023/06/12 18:00:09;;;;;;;3.35;2.90;;;;;;;;;;13162022;22;20362;-82
2023/06/12 18:05:12;;;;;;;4.65;3.03;;;;;;;;;;13156538;22;20378;-82
2023/06/12 18:10:14;;;;;;;3.45;2.80;;;;;;;;;;13171935;22;20369;-83
2023/06/12 18:15:18;;;;;;;4.30;2.70;;;;;;;;;;13157725;22;20921;-83
2023/06/12 18:20:21;;;;;;;7.35;2.60;;;;;;;;;;13158461;22;20446;-83
2023/06/12 18:25:23;;;;;;;6.43;2.73;;;;;;;;;;13157514;22;20430;-83
2023/06/12 18:30:27;;;;;;;3.20;2.55;;;;;;;;;;13160003;22;20354;-84
2023/06/12 18:35:32;;;;;;;13.38;3.28;;;;;;;;;;13157670;22;20482;-82
2023/06/12 18:40:34;;;;;;;4.40;2.60;;;;;;;;;;13159407;22;20934;-83
2023/06/12 18:45:38;;;;;;;2.58;2.38;;;;;;;;;;13158632;22;20878;-83
2023/06/12 18:50:40;;;;;;;4.53;2.70;;;;;;;;;;13158335;22;20430;-83
2023/06/12 18:55:42;;;;;;;4.13;2.60;;;;;;;;;;13158635;22;20373;-83
2023/06/12 19:00:46;;;;;;;3.47;2.38;;;;;;;;;;13168603;22;20729;-83
2023/06/12 19:05:50;;;;;;;4.40;2.53;;;;;;;;;;13158879;22;20541;-83
2023/06/12 19:10:52;;;;;;;3.17;2.42;;;;;;;;;;13159749;22;20377;-83
2023/06/12 19:15:56;;;;;;;3.60;2.35;;;;;;;;;;13157642;22;20957;-82
2023/06/12 19:20:58;;;;;;;2.22;2.03;;;;;;;;;;13158181;22;20395;-84
2023/06/12 19:26:01;;;;;;;4.20;2.50;;;;;;;;;;13159872;22;20374;-83
2023/06/12 19:31:05;;;;;;;3.72;2.40;;;;;;;;;;13180434;22;20369;-83
2023/06/12 19:36:07;;;;;;;3.70;2.53;;;;;;;;;;13155671;22;20370;-82
2023/06/12 19:41:10;;;;;;;2.70;2.50;;;;;;;;;;13158511;22;20370;-83
2023/06/12 19:46:13;;;;;;;3.00;2.63;;;;;;;;;;13157541;22;20381;-83
2023/06/12 19:51:16;;;;;;;4.32;2.70;;;;;;;;;;13157713;22;20426;-83
2023/06/12 19:56:18;;;;;;;3.10;2.60;;;;;;;;;;13166288;22;20373;-83
2023/06/12 20:01:22;;;;;;;3.95;2.47;;;;;;;;;;13159240;22;20460;-84
2023/06/12 20:06:24;;;;;;;4.47;3.40;;;;;;;;;;13160111;22;20382;-84
2023/06/12 20:11:26;;;;;;;3.13;2.83;;;;;;;;;;13162940;22;20377;-84
2023/06/12 20:16:33;;;;;;;3.73;2.80;;;;;;;;;;13162263;22;20373;-83
2023/06/12 20:21:38;;;;;;;3.42;2.97;;;;;;;;;;13161896;22;20720;-82
2023/06/12 20:26:41;;;;;;;5.25;3.80;;;;;;;;;;13161702;22;20406;-83
2023/06/12 20:31:44;;;;;;;3.90;3.30;;;;;;;;;;13184179;22;21068;-83
2023/06/12 20:36:47;;;;;;;4.45;3.35;;;;;;;;;;13160518;22;20399;-84
2023/06/12 20:41:49;;;;;;;4.63;3.45;;;;;;;;;;13160989;22;20374;-83
2023/06/12 20:46:53;;;;;;;5.00;3.90;;;;;;;;;;13159072;22;20426;-83
2023/06/12 20:51:55;;;;;;;5.43;4.13;;;;;;;;;;13159300;22;20370;-83
2023/06/12 20:56:57;;;;;;;4.40;4.00;;;;;;;;;;13164558;22;20370;-84
2023/06/12 21:02:01;;;;;;;7.05;5.85;;;;;;;;;;13174566;22;20403;-85
2023/06/12 21:07:04;;;;;;;7.72;6.00;;;;;;;;;;13161071;22;20365;-84
2023/06/12 21:12:08;;;;;;;6.30;5.40;;;;;;;;;;13164083;22;20370;-84
2023/06/12 21:17:12;;;;;;;6.82;5.72;;;;;;;;;;13163006;22;20378;-83
2023/06/12 21:22:14;;;;;;;7.38;5.90;;;;;;;;;;13162263;22;20374;-83
2023/06/12 21:27:17;;;;;;;6.32;5.57;;;;;;;;;;13183743;22;20366;-83
2023/06/12 21:32:20;;;;;;;6.20;5.50;;;;;;;;;;13163792;22;20953;-84
2023/06/12 21:37:23;;;;;;;6.82;5.50;;;;;;;;;;13162861;22;20841;-83
2023/06/12 21:42:26;;;;;;;6.32;5.30;;;;;;;;;;13163790;22;20381;-84
2023/06/12 21:47:30;;;;;;;5.30;4.80;;;;;;;;;;13167616;22;20354;-83
2023/06/12 21:52:34;;;;;;;4.27;3.67;;;;;;;;;;13171109;22;20446;-83
2023/06/12 21:57:36;;;;;;;4.03;3.70;;;;;;;;;;13170678;22;20366;-82
2023/06/12 22:02:40;;;;;;;4.20;3.80;;;;;;;;;;13170883;22;20369;-82
2023/06/12 22:07:42;;;;;;;4.35;3.60;;;;;;;;;;13170745;22;20388;-82
2023/06/12 22:12:45;;;;;;;4.72;4.22;;;;;;;;;;13169881;22;20415;-82
2023/06/12 22:17:49;;;;;;;5.57;4.30;;;;;;;;;;13171692;22;20354;-82
2023/06/12 22:22:51;;;;;;;5.53;3.93;;;;;;;;;;13172708;22;20403;-82
2023/06/12 22:27:54;;;;;;;6.30;4.07;;;;;;;;;;13171538;22;20415;-82
2023/06/12 22:32:57;;;;;;;5.85;4.47;;;;;;;;;;13168501;22;20365;-82
2023/06/12 22:38:00;;;;;;;5.40;4.35;;;;;;;;;;13171479;22;20441;-82
2023/06/12 22:43:02;;;;;;;4.78;4.25;;;;;;;;;;13172946;22;20455;-82
2023/06/12 22:48:08;;;;;;;5.45;4.25;;;;;;;;;;13170366;22;20362;-82
2023/06/12 22:53:11;;;;;;;4.88;4.38;;;;;;;;;;13171605;22;20365;-82
2023/06/12 22:58:13;;;;;;;4.80;4.07;;;;;;;;;;13170650;22;20395;-82
2023/06/12 23:03:17;;;;;;;4.28;3.80;;;;;;;;;;13170710;22;20861;-81
2023/06/12 23:08:19;;;;;;;5.03;4.13;;;;;;;;;;13172161;22;20741;-82
2023/06/12 23:13:22;;;;;;;4.73;4.00;;;;;;;;;;13171413;22;20353;-81
2023/06/12 23:18:29;;;;;;;6.45;3.85;;;;;;;;;;13172297;22;20357;-81
2023/06/12 23:23:32;;;;;;;5.30;3.70;;;;;;;;;;13172026;22;20378;-81
2023/06/12 23:28:35;;;;;;;6.68;3.65;;;;;;;;;;13193510;22;20434;-81
2023/06/12 23:33:39;;;;;;;4.22;3.40;;;;;;;;;;13171918;22;20422;-81
2023/06/12 23:38:41;;;;;;;4.57;4.00;;;;;;;;;;13171083;22;20377;-81
2023/06/12 23:43:44;;;;;;;4.15;3.50;;;;;;;;;;13174819;22;20759;-81
2023/06/12 23:48:48;;;;;;;3.70;3.30;;;;;;;;;;13175493;22;20421;-82
2023/06/12 23:53:50;;;;;;;3.20;2.90;;;;;;;;;;13176907;22;20682;-82
2023/06/12 23:58:53;;;;;;;4.22;2.75;;;;;;;;;;13176720;22;20880;-81
